createdAt,value
2023-08-17T00:02:16.057Z,100.00
2023-08-17T00:04:42.990Z,100.00
2023-08-17T00:07:09.871Z,100.00
2023-08-17T00:09:36.764Z,100.00
2023-08-17T00:12:03.982Z,100.00
2023-08-17T00:14:32.192Z,100.00
2023-08-17T00:16:59.002Z,100.00
2023-08-17T00:19:25.810Z,100.00
2023-08-17T00:21:53.398Z,100.00
2023-08-17T00:24:20.365Z,100.00
2023-08-17T00:26:47.345Z,100.00
2023-08-17T00:29:16.334Z,100.00
2023-08-17T00:31:43.425Z,100.00
2023-08-17T00:34:10.390Z,100.00
2023-08-17T00:36:37.416Z,100.00
2023-08-17T00:39:04.517Z,100.00
2023-08-17T00:41:32.056Z,100.00
2023-08-17T00:43:58.950Z,100.00
2023-08-17T00:46:26.402Z,100.00
2023-08-17T00:48:54.244Z,100.00
2023-08-17T00:51:22.015Z,100.00
2023-08-17T00:53:49.236Z,100.00
2023-08-17T00:56:16.201Z,100.00
2023-08-17T00:58:44.137Z,100.00
2023-08-17T01:01:11.549Z,100.00
2023-08-17T01:03:42.123Z,100.00
2023-08-17T01:06:09.716Z,100.00
2023-08-17T01:08:38.470Z,100.00
2023-08-17T01:11:26.189Z,100.00
2023-08-17T01:14:00.185Z,100.00
2023-08-17T01:16:40.403Z,100.00
2023-08-17T01:19:10.308Z,100.00
2023-08-17T01:21:44.418Z,100.00
2023-08-17T01:24:13.076Z,100.00
2023-08-17T01:26:39.940Z,100.00
2023-08-17T01:29:07.114Z,100.00
2023-08-17T01:31:42.168Z,100.00
2023-08-17T01:34:14.750Z,100.00
2023-08-17T01:36:48.317Z,100.00
2023-08-17T01:39:17.171Z,100.00
2023-08-17T01:41:46.798Z,100.00
2023-08-17T01:44:13.953Z,100.00
2023-08-17T01:46:41.022Z,100.00
2023-08-17T01:49:07.941Z,100.00
2023-08-17T01:51:34.830Z,100.00
2023-08-17T01:54:01.634Z,100.00
2023-08-17T01:56:28.539Z,100.00
2023-08-17T01:58:55.394Z,100.00
2023-08-17T02:01:22.244Z,100.00
2023-08-17T02:03:49.084Z,100.00
2023-08-17T02:06:15.904Z,100.00
2023-08-17T02:08:42.967Z,100.00
2023-08-17T02:11:11.441Z,100.00
2023-08-17T02:13:38.808Z,100.00
2023-08-17T02:16:06.479Z,100.00
2023-08-17T02:18:34.983Z,100.00
2023-08-17T02:21:02.242Z,100.00
2023-08-17T02:23:29.106Z,100.00
2023-08-17T02:25:56.041Z,100.00
2023-08-17T02:28:22.942Z,100.00
2023-08-17T02:30:50.466Z,100.00
2023-08-17T02:33:17.308Z,100.00
2023-08-17T02:35:44.366Z,100.00
2023-08-17T02:38:11.226Z,100.00
2023-08-17T02:40:38.075Z,100.00
2023-08-17T02:43:05.028Z,100.00
2023-08-17T02:45:31.980Z,100.00
2023-08-17T02:47:58.767Z,100.00
2023-08-17T02:50:25.613Z,100.00
2023-08-17T02:52:52.511Z,100.00
2023-08-17T02:55:19.343Z,100.00
2023-08-17T02:57:46.223Z,100.00
2023-08-17T03:00:13.793Z,100.00
2023-08-17T03:02:40.747Z,100.00
2023-08-17T03:05:07.892Z,100.00
2023-08-17T03:07:34.768Z,100.00
2023-08-17T03:10:01.586Z,100.00
2023-08-17T03:12:28.368Z,100.00
2023-08-17T03:14:55.189Z,100.00
2023-08-17T03:17:21.981Z,100.00
2023-08-17T03:19:48.809Z,100.00
2023-08-17T03:22:15.828Z,100.00
2023-08-17T03:24:42.673Z,100.00
2023-08-17T03:27:10.112Z,100.00
2023-08-17T03:29:36.946Z,100.00
2023-08-17T03:32:03.987Z,100.00
2023-08-17T03:34:30.993Z,100.00
2023-08-17T03:36:57.856Z,100.00
2023-08-17T03:39:24.744Z,100.00
2023-08-17T03:41:51.570Z,100.00
2023-08-17T03:44:18.547Z,100.00
2023-08-17T03:46:45.478Z,100.00
2023-08-17T03:49:12.841Z,100.00
2023-08-17T03:51:39.683Z,100.00
2023-08-17T03:54:06.564Z,100.00
2023-08-17T03:56:33.388Z,100.00
2023-08-17T03:59:00.819Z,100.00
2023-08-17T04:01:27.658Z,100.00
2023-08-17T04:03:54.582Z,100.00
2023-08-17T04:06:21.456Z,100.00
2023-08-17T04:08:48.290Z,100.00
2023-08-17T04:11:15.143Z,100.00
2023-08-17T04:13:41.913Z,100.00
2023-08-17T04:16:08.865Z,100.00
2023-08-17T04:18:35.729Z,100.00
2023-08-17T04:21:02.531Z,100.00
2023-08-17T04:23:29.335Z,100.00
2023-08-17T04:25:56.699Z,100.00
2023-08-17T04:28:23.603Z,100.00
2023-08-17T04:30:50.494Z,100.00
2023-08-17T04:33:17.356Z,100.00
2023-08-17T04:35:48.197Z,100.00
2023-08-17T04:38:15.497Z,100.00
2023-08-17T04:40:43.002Z,100.00
2023-08-17T04:43:12.071Z,100.00
2023-08-17T04:45:39.388Z,100.00
2023-08-17T04:48:07.786Z,100.00
2023-08-17T04:50:34.718Z,100.00
2023-08-17T04:53:01.683Z,100.00
2023-08-17T04:55:28.641Z,100.00
2023-08-17T04:57:55.479Z,100.00
2023-08-17T05:00:29.201Z,100.00
2023-08-17T05:02:59.486Z,100.00
2023-08-17T05:05:26.955Z,100.00
2023-08-17T05:07:54.238Z,100.00
2023-08-17T05:10:21.090Z,100.00
2023-08-17T05:12:48.312Z,100.00
2023-08-17T05:15:15.221Z,100.00
2023-08-17T05:17:42.148Z,100.00
2023-08-17T05:20:09.820Z,100.00
2023-08-17T05:22:36.648Z,100.00
2023-08-17T05:25:04.206Z,100.00
2023-08-17T05:27:31.156Z,100.00
2023-08-17T05:29:57.968Z,100.00
2023-08-17T05:32:24.871Z,100.00
2023-08-17T05:34:51.646Z,100.00
2023-08-17T05:37:19.285Z,100.00
2023-08-17T05:39:46.074Z,100.00
2023-08-17T05:42:13.007Z,100.00
2023-08-17T05:44:39.833Z,100.00
2023-08-17T05:47:06.710Z,100.00
2023-08-17T05:49:33.568Z,100.00
2023-08-17T05:52:00.450Z,100.00
2023-08-17T05:54:27.289Z,100.00
2023-08-17T05:56:54.086Z,100.00
2023-08-17T05:59:21.123Z,100.00
2023-08-17T06:01:47.974Z,100.00
2023-08-17T06:04:14.954Z,100.00
2023-08-17T06:06:41.884Z,100.00
2023-08-17T06:09:10.279Z,100.00
2023-08-17T06:11:37.349Z,100.00
2023-08-17T06:14:04.324Z,100.00
2023-08-17T06:16:31.449Z,100.00
2023-08-17T06:18:58.283Z,100.00
2023-08-17T06:21:25.193Z,100.00
2023-08-17T06:23:52.163Z,100.00
2023-08-17T06:26:19.876Z,100.00
2023-08-17T06:28:46.652Z,100.00
2023-08-17T06:31:16.528Z,100.00
2023-08-17T06:33:43.420Z,100.00
2023-08-17T06:36:10.256Z,100.00
2023-08-17T06:38:37.212Z,100.00
2023-08-17T06:41:04.059Z,100.00
2023-08-17T06:43:30.931Z,100.00
2023-08-17T06:45:57.856Z,100.00
2023-08-17T06:48:24.670Z,100.00
2023-08-17T06:50:51.507Z,100.00
2023-08-17T06:53:18.361Z,100.00
2023-08-17T06:55:45.396Z,100.00
2023-08-17T06:58:12.498Z,100.00
2023-08-17T07:00:42.089Z,100.00
2023-08-17T07:03:09.479Z,100.00
2023-08-17T07:05:36.613Z,100.00
2023-08-17T07:08:03.625Z,100.00
2023-08-17T07:10:30.469Z,100.00
2023-08-17T07:12:57.394Z,100.00
2023-08-17T07:15:24.248Z,100.00
2023-08-17T07:17:51.143Z,100.00
2023-08-17T07:20:18.167Z,100.00
2023-08-17T07:22:45.258Z,100.00
2023-08-17T07:25:12.171Z,100.00
2023-08-17T07:27:38.987Z,100.00
2023-08-17T07:30:06.495Z,100.00
2023-08-17T07:32:34.702Z,100.00
2023-08-17T07:35:01.690Z,100.00
2023-08-17T07:37:34.496Z,100.00
2023-08-17T07:40:01.931Z,100.00
2023-08-17T07:42:28.969Z,100.00
2023-08-17T07:44:55.986Z,100.00
2023-08-17T07:47:22.848Z,100.00
2023-08-17T07:49:50.049Z,100.00
2023-08-17T07:52:17.508Z,100.00
2023-08-17T07:54:44.449Z,100.00
2023-08-17T07:57:12.034Z,98.94
2023-08-17T07:59:38.862Z,99.54
2023-08-17T08:02:05.753Z,97.76
2023-08-17T08:04:32.751Z,92.56
2023-08-17T08:06:59.632Z,96.59
2023-08-17T08:09:26.430Z,92.30
2023-08-17T08:11:53.441Z,96.84
2023-08-17T08:14:20.316Z,94.37
2023-08-17T08:16:48.494Z,92.26
2023-08-17T08:19:15.273Z,89.35
2023-08-17T08:21:42.128Z,84.49
2023-08-17T08:24:17.740Z,86.28
2023-08-17T08:26:45.260Z,84.55
2023-08-17T08:29:12.324Z,83.17
2023-08-17T08:31:39.386Z,79.46
2023-08-17T08:34:06.281Z,82.79
2023-08-17T08:36:33.231Z,80.48
2023-08-17T08:39:00.124Z,82.73
2023-08-17T08:41:28.833Z,82.04
2023-08-17T08:43:55.928Z,79.25
2023-08-17T08:46:28.110Z,77.53
2023-08-17T08:48:55.918Z,72.44
2023-08-17T08:51:28.897Z,72.68
2023-08-17T08:54:06.418Z,72.75
2023-08-17T08:56:34.937Z,77.37
2023-08-17T08:59:05.872Z,71.72
2023-08-17T09:01:34.087Z,70.78
2023-08-17T09:04:04.433Z,73.09
2023-08-17T09:06:32.385Z,68.61
2023-08-17T09:09:00.018Z,65.89
2023-08-17T09:11:26.979Z,64.28
2023-08-17T09:13:54.903Z,67.07
2023-08-17T09:16:24.442Z,64.61
2023-08-17T09:18:55.447Z,65.97
2023-08-17T09:21:26.127Z,65.52
2023-08-17T09:23:59.215Z,64.04
2023-08-17T09:26:26.687Z,66.61
2023-08-17T09:28:55.691Z,62.79
2023-08-17T09:31:23.051Z,60.00
2023-08-17T09:33:51.634Z,62.78
2023-08-17T09:36:26.247Z,66.96
2023-08-17T09:38:53.109Z,65.82
2023-08-17T09:41:20.624Z,61.60
2023-08-17T09:43:49.007Z,68.17
2023-08-17T09:46:16.498Z,65.18
2023-08-17T09:48:49.190Z,66.92
2023-08-17T09:51:17.475Z,66.17
2023-08-17T09:53:44.677Z,68.41
2023-08-17T09:56:18.202Z,68.33
2023-08-17T09:58:45.288Z,70.06
2023-08-17T10:01:13.645Z,68.59
2023-08-17T10:03:46.565Z,67.16
2023-08-17T10:06:17.032Z,66.81
2023-08-17T10:08:46.689Z,66.19
2023-08-17T10:11:16.317Z,64.05
2023-08-17T10:14:04.306Z,59.15
2023-08-17T10:16:45.041Z,62.34
2023-08-17T10:19:20.603Z,63.59
2023-08-17T10:21:57.963Z,63.98
2023-08-17T10:24:24.909Z,65.42
2023-08-17T10:26:54.916Z,61.45
2023-08-17T10:29:24.855Z,59.21
2023-08-17T10:31:52.475Z,61.70
2023-08-17T10:34:19.899Z,58.82
2023-08-17T10:36:47.269Z,60.08
2023-08-17T10:39:28.750Z,57.98
2023-08-17T10:41:57.921Z,60.77
2023-08-17T10:44:47.592Z,61.71
2023-08-17T10:47:21.809Z,63.76
2023-08-17T10:49:59.466Z,61.81
2023-08-17T10:52:34.231Z,61.55
2023-08-17T10:55:02.782Z,59.72
2023-08-17T10:57:30.727Z,60.89
2023-08-17T11:00:07.625Z,60.17
2023-08-17T11:02:36.178Z,60.44
2023-08-17T11:05:04.825Z,57.77
2023-08-17T11:07:46.097Z,61.49
2023-08-17T11:10:19.473Z,58.07
2023-08-17T11:12:46.425Z,57.32
2023-08-17T11:15:13.660Z,53.93
2023-08-17T11:17:40.594Z,59.44
2023-08-17T11:20:15.112Z,59.68
2023-08-17T11:22:42.347Z,54.08
2023-08-17T11:25:09.729Z,54.12
2023-08-17T11:27:38.781Z,53.06
2023-08-17T11:30:07.028Z,55.82
2023-08-17T11:32:33.918Z,53.75
2023-08-17T11:35:00.772Z,52.94
2023-08-17T11:37:27.691Z,52.84
2023-08-17T11:39:54.626Z,53.41
2023-08-17T11:42:21.663Z,47.66
2023-08-17T11:44:50.041Z,50.84
2023-08-17T11:47:17.263Z,50.77
2023-08-17T11:49:44.270Z,52.72
2023-08-17T11:52:12.401Z,50.84
2023-08-17T11:54:43.140Z,51.52
2023-08-17T11:57:10.077Z,52.93
2023-08-17T11:59:37.447Z,50.36
2023-08-17T12:02:04.411Z,50.26
2023-08-17T12:04:35.152Z,51.88
2023-08-17T12:07:02.305Z,49.89
2023-08-17T12:09:29.290Z,50.11
2023-08-17T12:12:01.340Z,49.07
2023-08-17T12:14:31.622Z,50.64
2023-08-17T12:16:58.566Z,49.03
2023-08-17T12:19:28.347Z,51.31
2023-08-17T12:21:55.283Z,46.14
2023-08-17T12:24:25.316Z,48.25
2023-08-17T12:26:53.146Z,48.83
2023-08-17T12:29:21.507Z,48.33
2023-08-17T12:31:48.527Z,45.46
2023-08-17T12:34:15.864Z,43.09
2023-08-17T12:36:45.593Z,44.00
2023-08-17T12:39:12.674Z,39.52
2023-08-17T12:41:39.511Z,41.76
2023-08-17T12:44:06.597Z,42.76
2023-08-17T12:46:36.017Z,44.52
2023-08-17T12:49:03.007Z,40.89
2023-08-17T12:51:30.078Z,42.08
2023-08-17T12:53:57.485Z,43.01
2023-08-17T12:56:24.506Z,41.13
2023-08-17T12:58:51.463Z,44.33
2023-08-17T13:01:20.225Z,45.18
2023-08-17T13:03:47.105Z,44.50
2023-08-17T13:06:14.362Z,45.49
2023-08-17T13:08:41.197Z,42.06
2023-08-17T13:11:08.183Z,38.34
2023-08-17T13:13:35.033Z,38.22
2023-08-17T13:16:03.038Z,38.85
2023-08-17T13:18:31.473Z,39.76
2023-08-17T13:20:58.471Z,38.89
2023-08-17T13:23:25.381Z,43.11
2023-08-17T13:25:52.802Z,42.39
2023-08-17T13:28:19.612Z,41.39
2023-08-17T13:30:46.725Z,41.40
2023-08-17T13:33:14.125Z,37.41
2023-08-17T13:35:41.420Z,39.90
2023-08-17T13:38:08.317Z,38.43
2023-08-17T13:40:37.661Z,40.25
2023-08-17T13:43:04.937Z,40.74
2023-08-17T13:45:31.791Z,37.06
2023-08-17T13:48:03.385Z,40.14
2023-08-17T13:50:30.402Z,36.61
2023-08-17T13:52:57.295Z,35.12
2023-08-17T13:55:24.852Z,35.66
2023-08-17T13:57:54.192Z,41.91
2023-08-17T14:00:20.989Z,40.71
2023-08-17T14:02:48.041Z,39.37
2023-08-17T14:05:15.343Z,40.40
2023-08-17T14:07:42.283Z,39.37
2023-08-17T14:10:13.993Z,37.71
2023-08-17T14:12:48.690Z,39.49
2023-08-17T14:15:15.618Z,40.89
2023-08-17T14:17:42.519Z,39.80
2023-08-17T14:20:10.328Z,44.31
2023-08-17T14:22:37.430Z,45.71
2023-08-17T14:25:04.589Z,45.21
2023-08-17T14:27:31.463Z,46.58
2023-08-17T14:29:58.720Z,45.82
2023-08-17T14:32:25.853Z,47.02
2023-08-17T14:34:52.827Z,47.78
2023-08-17T14:37:24.928Z,49.57
2023-08-17T14:39:52.332Z,49.67
2023-08-17T14:42:19.676Z,51.28
2023-08-17T14:44:46.947Z,50.94
2023-08-17T14:47:15.045Z,51.26
2023-08-17T14:49:47.649Z,51.60
2023-08-17T14:52:14.602Z,53.69
2023-08-17T14:54:43.409Z,52.50
2023-08-17T14:57:10.642Z,54.29
2023-08-17T14:59:38.368Z,55.03
2023-08-17T15:02:05.512Z,54.12
2023-08-17T15:04:32.695Z,54.72
2023-08-17T15:06:59.583Z,54.29
2023-08-17T15:09:26.429Z,55.21
2023-08-17T15:11:53.435Z,56.42
2023-08-17T15:14:20.268Z,54.90
2023-08-17T15:16:47.287Z,56.56
2023-08-17T15:19:15.597Z,57.91
2023-08-17T15:21:42.727Z,58.18
2023-08-17T15:24:09.626Z,60.94
2023-08-17T15:26:36.502Z,60.85
2023-08-17T15:29:03.492Z,60.50
2023-08-17T15:31:30.432Z,59.45
2023-08-17T15:33:57.410Z,59.46
2023-08-17T15:36:25.339Z,61.03
2023-08-17T15:38:52.451Z,59.59
2023-08-17T15:41:20.165Z,60.00
2023-08-17T15:43:47.034Z,60.26
2023-08-17T15:46:13.934Z,60.13
2023-08-17T15:48:41.105Z,59.84
2023-08-17T15:51:08.029Z,59.48
2023-08-17T15:53:36.001Z,60.16
2023-08-17T15:56:02.907Z,58.76
2023-08-17T15:58:29.862Z,60.36
2023-08-17T16:00:56.709Z,60.47
2023-08-17T16:03:24.035Z,60.71
2023-08-17T16:05:51.071Z,60.50
2023-08-17T16:08:18.048Z,62.10
2023-08-17T16:10:48.130Z,58.65
2023-08-17T16:13:16.386Z,58.91
2023-08-17T16:15:43.334Z,59.28
2023-08-17T16:18:10.227Z,59.83
2023-08-17T16:20:37.116Z,58.67
2023-08-17T16:23:04.674Z,58.73
2023-08-17T16:25:33.838Z,59.70
2023-08-17T16:28:01.035Z,60.53
2023-08-17T16:30:27.829Z,60.93
2023-08-17T16:32:54.860Z,60.35
2023-08-17T16:35:21.977Z,62.18
2023-08-17T16:37:48.889Z,61.65
2023-08-17T16:40:31.964Z,61.22
2023-08-17T16:43:04.125Z,61.72
2023-08-17T16:45:31.922Z,62.42
2023-08-17T16:47:58.899Z,61.62
2023-08-17T16:50:26.129Z,61.85
2023-08-17T16:52:53.184Z,62.11
2023-08-17T16:55:20.127Z,63.16
2023-08-17T16:57:46.962Z,63.00
2023-08-17T17:00:17.331Z,62.91
2023-08-17T17:02:44.697Z,63.88
2023-08-17T17:05:11.679Z,64.62
2023-08-17T17:07:38.494Z,64.73
2023-08-17T17:10:05.716Z,65.03
2023-08-17T17:12:32.489Z,65.25
2023-08-17T17:14:59.455Z,66.16
2023-08-17T17:17:26.716Z,65.93
2023-08-17T17:19:53.982Z,65.81
2023-08-17T17:22:21.293Z,65.92
2023-08-17T17:24:48.113Z,65.97
2023-08-17T17:27:14.992Z,65.87
2023-08-17T17:29:41.890Z,65.84
2023-08-17T17:32:08.848Z,66.76
2023-08-17T17:34:35.854Z,66.92
2023-08-17T17:37:04.797Z,66.36
2023-08-17T17:39:31.601Z,66.76
2023-08-17T17:41:58.706Z,66.47
2023-08-17T17:44:25.977Z,66.49
2023-08-17T17:46:53.843Z,66.04
2023-08-17T17:49:21.719Z,66.78
2023-08-17T17:51:49.265Z,67.62
2023-08-17T17:54:16.480Z,67.56
2023-08-17T17:56:45.282Z,67.24
2023-08-17T17:59:12.655Z,66.38
2023-08-17T18:01:40.208Z,68.21
2023-08-17T18:04:07.545Z,67.60
2023-08-17T18:06:38.339Z,67.61
2023-08-17T18:09:08.445Z,69.15
2023-08-17T18:11:35.611Z,69.36
2023-08-17T18:14:03.159Z,69.91
2023-08-17T18:16:31.716Z,69.69
2023-08-17T18:18:58.912Z,70.74
2023-08-17T18:21:25.757Z,70.95
2023-08-17T18:23:52.602Z,71.93
2023-08-17T18:26:19.402Z,72.56
2023-08-17T18:28:46.362Z,72.36
2023-08-17T18:31:13.492Z,72.97
2023-08-17T18:33:41.380Z,73.08
2023-08-17T18:36:08.230Z,73.41
2023-08-17T18:38:35.062Z,72.63
2023-08-17T18:41:09.375Z,72.81
2023-08-17T18:43:37.526Z,72.99
2023-08-17T18:46:04.817Z,72.56
2023-08-17T18:48:32.124Z,73.38
2023-08-17T18:50:59.367Z,73.28
2023-08-17T18:53:26.295Z,73.91
2023-08-17T18:55:53.239Z,74.20
2023-08-17T18:58:21.679Z,73.93
2023-08-17T19:00:48.770Z,73.79
2023-08-17T19:03:16.003Z,72.67
2023-08-17T19:05:43.509Z,72.81
2023-08-17T19:08:10.314Z,72.78
2023-08-17T19:10:37.258Z,73.08
2023-08-17T19:13:04.411Z,72.96
2023-08-17T19:15:31.588Z,73.06
2023-08-17T19:17:58.690Z,75.90
2023-08-17T19:20:25.604Z,75.45
2023-08-17T19:22:56.761Z,77.04
2023-08-17T19:25:24.350Z,76.51
2023-08-17T19:27:51.244Z,78.01
2023-08-17T19:30:20.759Z,78.34
2023-08-17T19:32:47.686Z,78.21
2023-08-17T19:35:16.121Z,77.93
2023-08-17T19:37:43.270Z,77.57
2023-08-17T19:40:10.813Z,77.56
2023-08-17T19:42:37.716Z,75.60
2023-08-17T19:45:05.475Z,75.71
2023-08-17T19:47:32.660Z,76.25
2023-08-17T19:49:59.656Z,77.92
2023-08-17T19:52:26.484Z,77.56
2023-08-17T19:54:53.419Z,78.68
2023-08-17T19:57:21.316Z,79.02
2023-08-17T19:59:50.512Z,78.86
2023-08-17T20:02:17.441Z,79.37
2023-08-17T20:04:46.028Z,80.08
2023-08-17T20:07:12.932Z,81.42
2023-08-17T20:09:39.874Z,81.64
2023-08-17T20:12:07.420Z,81.54
2023-08-17T20:14:36.155Z,82.24
2023-08-17T20:17:03.275Z,82.86
2023-08-17T20:19:33.650Z,83.85
2023-08-17T20:22:02.111Z,84.39
2023-08-17T20:24:29.043Z,85.69
2023-08-17T20:26:56.320Z,85.99
2023-08-17T20:29:23.674Z,86.25
2023-08-17T20:31:51.360Z,87.06
2023-08-17T20:34:21.059Z,87.52
2023-08-17T20:36:52.171Z,87.87
2023-08-17T20:39:21.788Z,89.26
2023-08-17T20:41:48.919Z,90.40
2023-08-17T20:44:15.870Z,90.80
2023-08-17T20:46:42.724Z,91.42
2023-08-17T20:49:09.618Z,91.93
2023-08-17T20:51:36.594Z,92.54
2023-08-17T20:54:03.988Z,93.51
2023-08-17T20:56:30.938Z,94.28
2023-08-17T20:58:57.800Z,95.08
2023-08-17T21:01:24.860Z,95.13
2023-08-17T21:03:51.991Z,95.54
2023-08-17T21:06:22.166Z,96.29
2023-08-17T21:08:49.258Z,95.66
2023-08-17T21:11:17.035Z,96.32
2023-08-17T21:13:44.128Z,96.75
2023-08-17T21:16:11.324Z,97.97
2023-08-17T21:18:38.531Z,98.59
2023-08-17T21:21:05.791Z,99.88
2023-08-17T21:23:33.778Z,99.48
2023-08-17T21:26:00.850Z,99.50
2023-08-17T21:28:27.954Z,99.84
2023-08-17T21:31:03.210Z,100.00
2023-08-17T21:33:31.205Z,100.00
2023-08-17T21:35:59.927Z,100.00
2023-08-17T21:38:27.362Z,100.00
2023-08-17T21:41:01.702Z,100.00
2023-08-17T21:43:38.244Z,100.00
2023-08-17T21:46:05.093Z,100.00
2023-08-17T21:48:32.047Z,100.00
2023-08-17T21:50:59.036Z,100.00
2023-08-17T21:53:26.013Z,100.00
2023-08-17T21:55:53.318Z,100.00
2023-08-17T21:58:20.872Z,100.00
2023-08-17T22:00:48.593Z,100.00
2023-08-17T22:03:16.747Z,100.00
2023-08-17T22:05:47.813Z,100.00
2023-08-17T22:08:15.750Z,100.00
2023-08-17T22:10:43.290Z,100.00
2023-08-17T22:13:10.516Z,100.00
2023-08-17T22:15:37.563Z,100.00
2023-08-17T22:18:04.980Z,100.00
2023-08-17T22:20:31.988Z,100.00
2023-08-17T22:22:59.033Z,100.00
2023-08-17T22:25:25.918Z,100.00
2023-08-17T22:27:52.888Z,100.00
2023-08-17T22:30:20.363Z,100.00
2023-08-17T22:32:47.604Z,100.00
2023-08-17T22:35:15.232Z,100.00
2023-08-17T22:37:42.169Z,100.00
2023-08-17T22:40:09.442Z,100.00
2023-08-17T22:42:37.068Z,100.00
2023-08-17T22:45:04.451Z,100.00
2023-08-17T22:47:32.487Z,100.00
2023-08-17T22:49:59.877Z,100.00
2023-08-17T22:52:26.902Z,100.00
2023-08-17T22:54:53.957Z,100.00
2023-08-17T22:57:20.975Z,100.00
2023-08-17T22:59:48.027Z,100.00
2023-08-17T23:02:14.908Z,100.00
2023-08-17T23:04:41.749Z,100.00
2023-08-17T23:07:08.593Z,100.00
2023-08-17T23:09:37.039Z,100.00
2023-08-17T23:12:07.523Z,100.00
2023-08-17T23:14:35.691Z,100.00
2023-08-17T23:17:02.689Z,100.00
2023-08-17T23:19:29.515Z,100.00
2023-08-17T23:21:58.996Z,100.00
2023-08-17T23:24:26.080Z,100.00
2023-08-17T23:26:52.925Z,100.00
2023-08-17T23:29:19.816Z,100.00
2023-08-17T23:31:46.882Z,100.00
2023-08-17T23:34:14.063Z,100.00
2023-08-17T23:36:40.969Z,100.00
2023-08-17T23:39:07.896Z,100.00
2023-08-17T23:41:34.981Z,100.00
2023-08-17T23:44:02.278Z,100.00
2023-08-17T23:46:29.368Z,100.00
2023-08-17T23:48:56.471Z,100.00
2023-08-17T23:51:23.496Z,100.00
2023-08-17T23:53:51.104Z,100.00
2023-08-17T23:56:18.134Z,100.00
2023-08-17T23:58:44.964Z,100.00
